CZFM/ZFM METAR and TAF weather

Enter ICAO airport designator
Station Type Date Time Source
CZFM METAR 2019/12/14 00:00 UTC NOAA

CZFM 140000Z 16006KT 10SM FEW050 M33/M36 A2985 RMK SC1 SC TR S0.0 AFT00UTC 39.0/SNWCVR/MUCH LOOSE LAST STFD OBS/NXT 141400Z SLP116


Station Type Date Time Source
CZFM Decoded METAR 2019/12/14 00:00 UTC NOAA

Fort Mcpherson Airport, Canada (CZFM) 67-24N 134-51W
Dec 13, 2019 - 07:00 PM EST / 2019.12.14 0000 UTC
Wind: from the SSE (160 degrees) at 7 MPH (6 KT):0
Visibility: 10 mile(s):0
Sky conditions: mostly clear
Temperature: -27 F (-33 C)
Windchill: -45 F (-43 C):2
Dew Point: -32 F (-36 C)
Relative Humidity: 74%
Pressure (altimeter): 29.85 in. Hg (1010 hPa)
ob: CZFM 140000Z 16006KT 10SM FEW050 M33/M36 A2985 RMK SC1 SC TR S0.0 AFT00UTC 39.0/SNWCVR/MUCH LOOSE LAST STFD OBS/NXT 141400Z SLP116
cycle: 0

Station Type Date Time Source
CZFM TAF 2019/12/13 19:00 UTC NOAA

TAF CZFM 131838Z 1319/1324 14010KT P6SM SKC
RMK NXT FCST WILL BE ISSUED AT 141545Z

Example: see airport list